createdAt,value
2023-04-15T00:00:37.943Z,101340.66
2023-04-15T00:01:41.069Z,101340.66
2023-04-15T00:02:45.545Z,101338.97
2023-04-15T00:03:49.334Z,101333.75
2023-04-15T00:04:53.093Z,101332.06
2023-04-15T00:05:56.312Z,101339.50
2023-04-15T00:07:00.113Z,101329.69
2023-04-15T00:08:03.172Z,101344.09
2023-04-15T00:09:06.543Z,101345.94
2023-04-15T00:10:10.344Z,101338.88
2023-04-15T00:11:13.951Z,101336.50
2023-04-15T00:12:17.109Z,101334.66
2023-04-15T00:13:21.220Z,101339.22
2023-04-15T00:14:24.160Z,101339.41
2023-04-15T00:15:28.103Z,101338.59
2023-04-15T00:16:31.690Z,101335.88
2023-04-15T00:17:35.193Z,101340.44
2023-04-15T00:18:38.933Z,101336.91
2023-04-15T00:19:42.841Z,101332.13
2023-04-15T00:20:46.239Z,101342.31
2023-04-15T00:21:49.518Z,101339.78
2023-04-15T00:22:53.444Z,101334.19
2023-04-15T00:23:57.437Z,101339.59
2023-04-15T00:25:00.679Z,101336.91
2023-04-15T00:26:16.574Z,101333.34
2023-04-15T00:27:20.612Z,101333.16
2023-04-15T00:28:23.958Z,101336.91
2023-04-15T00:29:27.543Z,101330.47
2023-04-15T00:30:31.369Z,101338.38
2023-04-15T00:31:34.997Z,101334.81
2023-04-15T00:32:38.084Z,101330.47
2023-04-15T00:33:41.355Z,101338.38
2023-04-15T00:34:44.506Z,101337.53
2023-04-15T00:35:48.548Z,101330.09
2023-04-15T00:36:52.729Z,101335.50
2023-04-15T00:37:56.218Z,101338.03
2023-04-15T00:38:59.495Z,101334.47
2023-04-15T00:40:03.310Z,101337.19
2023-04-15T00:41:06.523Z,101338.88
2023-04-15T00:42:10.244Z,101338.03
2023-04-15T00:43:13.753Z,101330.94
2023-04-15T00:44:17.344Z,101335.69
2023-04-15T00:45:20.814Z,101335.22
2023-04-15T00:46:23.898Z,101337.25
2023-04-15T00:47:27.784Z,101333.69
2023-04-15T00:48:31.182Z,101329.13
2023-04-15T00:49:34.536Z,101334.75
2023-04-15T00:50:38.244Z,101328.28
2023-04-15T00:51:41.549Z,101327.44
2023-04-15T00:52:45.207Z,101329.50
2023-04-15T00:53:48.384Z,101329.50
2023-04-15T00:54:53.442Z,101327.81
2023-04-15T00:55:56.782Z,101331.38
2023-04-15T00:57:00.118Z,101327.81
2023-04-15T00:58:03.297Z,101323.25
2023-04-15T00:59:09.795Z,101325.09
2023-04-15T01:00:13.657Z,101319.88
2023-04-15T01:01:16.805Z,101318.00
2023-04-15T01:02:20.566Z,101323.41
2023-04-15T01:03:23.981Z,101319.88
2023-04-15T01:04:27.244Z,101327.13
2023-04-15T01:05:31.265Z,101314.44
2023-04-15T01:06:34.660Z,101315.28
2023-04-15T01:07:37.726Z,101319.00
2023-04-15T01:08:41.106Z,101311.94
2023-04-15T01:09:44.331Z,101315.66
2023-04-15T01:10:47.661Z,101315.66
2023-04-15T01:11:50.836Z,101308.41
2023-04-15T01:12:54.024Z,101317.34
2023-04-15T01:14:00.507Z,101308.56
2023-04-15T01:15:03.535Z,101309.59
2023-04-15T01:16:07.385Z,101308.75
2023-04-15T01:17:11.070Z,101310.59
2023-04-15T01:18:16.415Z,101313.97
2023-04-15T01:19:19.874Z,101301.28
2023-04-15T01:20:23.545Z,101312.28
2023-04-15T01:21:27.241Z,101308.56
2023-04-15T01:22:30.520Z,101301.47
2023-04-15T01:23:33.787Z,101306.03
2023-04-15T01:24:36.991Z,101305.19
2023-04-15T01:25:39.977Z,101302.31
2023-04-15T01:26:44.587Z,101301.47
2023-04-15T01:27:48.322Z,101305.00
2023-04-15T01:28:52.426Z,101306.03
2023-04-15T01:29:57.679Z,101297.56
2023-04-15T01:31:10.328Z,101302.97
2023-04-15T01:32:13.609Z,101303.16
2023-04-15T01:33:35.369Z,101300.44
2023-04-15T01:34:57.618Z,101298.75
2023-04-15T01:36:19.196Z,101299.78
2023-04-15T01:37:22.776Z,101299.78
2023-04-15T01:38:27.748Z,101303.50
2023-04-15T01:39:30.769Z,101302.69
2023-04-15T01:40:34.369Z,101308.09
2023-04-15T01:41:38.584Z,101297.06
2023-04-15T01:42:42.682Z,101299.78
2023-04-15T01:43:46.935Z,101306.19
2023-04-15T01:44:51.732Z,101297.28
2023-04-15T01:45:57.168Z,101296.03
2023-04-15T01:47:02.956Z,101291.66
2023-04-15T01:48:07.846Z,101292.66
2023-04-15T01:49:15.360Z,101288.47
2023-04-15T01:50:20.023Z,101285.59
2023-04-15T01:51:25.797Z,101283.06
2023-04-15T01:52:30.051Z,101291.47
2023-04-15T01:53:34.999Z,101282.88
2023-04-15T01:54:40.424Z,101285.59
2023-04-15T01:55:44.877Z,101280.47
2023-04-15T01:56:52.262Z,101279.78
2023-04-15T01:57:57.330Z,101286.44
2023-04-15T01:59:02.422Z,101283.91
2023-04-15T02:00:12.212Z,101290.34
2023-04-15T02:01:23.202Z,101284.25
2023-04-15T02:02:28.636Z,101289.66
2023-04-15T02:03:34.302Z,101284.25
2023-04-15T02:04:38.814Z,101282.78
2023-04-15T02:05:43.865Z,101289.03
2023-04-15T02:06:48.294Z,101286.31
2023-04-15T02:07:52.802Z,101289.03
2023-04-15T02:08:57.703Z,101293.22
2023-04-15T02:10:01.938Z,101285.94
2023-04-15T02:11:06.465Z,101285.09
2023-04-15T02:12:11.378Z,101289.66
2023-04-15T02:13:17.647Z,101291.34
2023-04-15T02:14:22.589Z,101294.06
2023-04-15T02:15:27.222Z,101293.06
2023-04-15T02:16:32.373Z,101293.06
2023-04-15T02:17:37.080Z,101284.94
2023-04-15T02:18:41.865Z,101283.91
2023-04-15T02:19:47.500Z,101278.09
2023-04-15T02:20:54.708Z,101282.22
2023-04-15T02:21:59.414Z,101284.25
2023-04-15T02:23:04.208Z,101284.25
2023-04-15T02:24:08.996Z,101285.47
2023-04-15T02:25:13.572Z,101281.94
2023-04-15T02:26:18.667Z,101281.22
2023-04-15T02:27:23.095Z,101280.38
2023-04-15T02:28:28.542Z,101286.00
2023-04-15T02:29:33.619Z,101285.16
2023-04-15T02:30:38.353Z,101286.00
2023-04-15T02:31:42.857Z,101286.00
2023-04-15T02:32:47.620Z,101281.59
2023-04-15T02:33:52.113Z,101279.06
2023-04-15T02:34:56.589Z,101284.66
2023-04-15T02:36:01.154Z,101280.28
2023-04-15T02:37:06.576Z,101282.16
2023-04-15T02:38:13.388Z,101277.94
2023-04-15T02:39:19.570Z,101285.72
2023-04-15T02:40:25.038Z,101281.31
2023-04-15T02:41:31.076Z,101279.44
2023-04-15T02:42:36.457Z,101275.91
2023-04-15T02:43:41.164Z,101284.03
2023-04-15T02:44:46.721Z,101280.28
2023-04-15T02:45:51.853Z,101281.31
2023-04-15T02:46:57.950Z,101285.03
2023-04-15T02:48:07.068Z,101279.63
2023-04-15T02:49:11.616Z,101281.31
2023-04-15T02:50:16.588Z,101277.94
2023-04-15T02:51:21.366Z,101269.81
2023-04-15T02:52:26.774Z,101272.69
2023-04-15T02:53:31.520Z,101280.81
2023-04-15T02:54:35.902Z,101273.75
2023-04-15T02:55:40.258Z,101273.75
2023-04-15T02:56:44.926Z,101280.00
2023-04-15T02:57:49.132Z,101272.53
2023-04-15T02:58:57.057Z,101274.59
2023-04-15T03:00:01.861Z,101285.41
2023-04-15T03:01:08.287Z,101281.03
2023-04-15T03:02:12.841Z,101282.03
2023-04-15T03:03:17.542Z,101281.03
2023-04-15T03:04:22.107Z,101275.41
2023-04-15T03:05:26.709Z,101281.66
2023-04-15T03:06:31.481Z,101281.47
2023-04-15T03:07:35.972Z,101279.63
2023-04-15T03:08:40.832Z,101280.28
2023-04-15T03:09:46.228Z,101272.16
2023-04-15T03:10:53.043Z,101270.47
2023-04-15T03:11:57.590Z,101268.78
2023-04-15T03:13:02.636Z,101268.78
2023-04-15T03:14:07.139Z,101266.22
2023-04-15T03:15:15.087Z,101268.91
2023-04-15T03:16:22.949Z,101266.38
2023-04-15T03:17:27.703Z,101264.06
2023-04-15T03:18:32.255Z,101267.59
2023-04-15T03:19:39.387Z,101264.22
2023-04-15T03:20:44.317Z,101266.09
2023-04-15T03:21:50.523Z,101272.53
2023-04-15T03:22:54.767Z,101272.69
2023-04-15T03:24:00.538Z,101266.47
2023-04-15T03:25:06.221Z,101271.88
2023-04-15T03:26:10.768Z,101270.19
2023-04-15T03:27:15.404Z,101264.94
2023-04-15T03:28:20.094Z,101267.47
2023-04-15T03:29:26.664Z,101269.34
2023-04-15T03:30:31.332Z,101273.53
2023-04-15T03:31:36.016Z,101264.78
2023-04-15T03:32:41.057Z,101268.50
2023-04-15T03:33:46.226Z,101266.63
2023-04-15T03:34:50.819Z,101271.03
2023-04-15T03:35:55.454Z,101267.09
2023-04-15T03:36:59.843Z,101262.72
2023-04-15T03:38:04.338Z,101265.41
2023-04-15T03:39:08.758Z,101267.28
2023-04-15T03:40:13.300Z,101262.72
2023-04-15T03:41:18.040Z,101268.78
2023-04-15T03:42:22.875Z,101270.47
2023-04-15T03:43:27.336Z,101269.47
2023-04-15T03:44:32.059Z,101254.97
2023-04-15T03:45:36.457Z,101270.31
2023-04-15T03:46:40.809Z,101270.47
2023-04-15T03:47:45.497Z,101262.38
2023-04-15T03:48:49.744Z,101271.50
2023-04-15T03:49:54.413Z,101264.41
2023-04-15T03:50:58.858Z,101268.97
2023-04-15T03:52:02.959Z,101266.47
2023-04-15T03:53:07.275Z,101266.47
2023-04-15T03:54:12.422Z,101271.88
2023-04-15T03:55:16.784Z,101279.31
2023-04-15T03:56:21.671Z,101279.31
2023-04-15T03:57:26.527Z,101272.22
2023-04-15T03:58:31.295Z,101271.38
2023-04-15T03:59:35.798Z,101281.38
2023-04-15T04:00:41.069Z,101277.81
2023-04-15T04:01:46.194Z,101277.63
2023-04-15T04:02:51.413Z,101281.38
2023-04-15T04:03:55.779Z,101275.94
2023-04-15T04:05:00.278Z,101276.97
2023-04-15T04:06:05.011Z,101267.19
2023-04-15T04:07:10.039Z,101286.13
2023-04-15T04:08:15.073Z,101276.31
2023-04-15T04:09:19.811Z,101275.47
2023-04-15T04:10:24.025Z,101278.00
2023-04-15T04:11:29.297Z,101288.84
2023-04-15T04:12:33.972Z,101278.88
2023-04-15T04:13:38.865Z,101284.44
2023-04-15T04:14:43.969Z,101274.63
2023-04-15T04:15:48.462Z,101281.06
2023-04-15T04:16:52.834Z,101279.22
2023-04-15T04:17:57.727Z,101276.66
2023-04-15T04:19:02.823Z,101275.00
2023-04-15T04:20:07.954Z,101283.13
2023-04-15T04:21:12.583Z,101279.38
2023-04-15T04:22:18.354Z,101282.09
2023-04-15T04:23:22.902Z,101279.59
2023-04-15T04:24:27.152Z,101281.44
2023-04-15T04:25:31.528Z,101280.44
2023-04-15T04:26:35.951Z,101285.84
2023-04-15T04:27:40.959Z,101278.75
2023-04-15T04:28:45.578Z,101282.47
2023-04-15T04:29:50.598Z,101279.94
2023-04-15T04:30:54.810Z,101277.44
2023-04-15T04:31:59.782Z,101279.09
2023-04-15T04:33:04.418Z,101279.09
2023-04-15T04:34:09.484Z,101277.44
2023-04-15T04:35:13.497Z,101281.78
2023-04-15T04:36:17.661Z,101282.84
2023-04-15T04:37:22.017Z,101278.25
2023-04-15T04:38:26.845Z,101278.25
2023-04-15T04:39:31.574Z,101278.25
2023-04-15T04:40:35.972Z,101273.66
2023-04-15T04:41:40.316Z,101279.94
2023-04-15T04:42:44.451Z,101280.13
2023-04-15T04:43:49.068Z,101280.13
2023-04-15T04:44:53.902Z,101280.13
2023-04-15T04:45:58.170Z,101278.63
2023-04-15T04:47:02.995Z,101284.03
2023-04-15T04:48:09.302Z,101285.88
2023-04-15T04:49:13.373Z,101281.50
2023-04-15T04:50:17.875Z,101279.00
2023-04-15T04:51:22.495Z,101276.63
2023-04-15T04:52:27.579Z,101287.63
2023-04-15T04:53:31.743Z,101276.78
2023-04-15T04:54:36.518Z,101291.00
2023-04-15T04:55:41.212Z,101285.59
2023-04-15T04:56:45.564Z,101286.59
2023-04-15T04:57:50.307Z,101280.19
2023-04-15T04:58:54.920Z,101287.28
2023-04-15T04:59:59.269Z,101291.69
2023-04-15T05:01:03.673Z,101283.56
2023-04-15T05:02:08.420Z,101286.06
2023-04-15T05:03:13.261Z,101288.97
2023-04-15T05:04:18.257Z,101289.59
2023-04-15T05:05:22.571Z,101286.25
2023-04-15T05:06:27.317Z,101294.38
2023-04-15T05:07:31.880Z,101295.41
2023-04-15T05:08:38.092Z,101292.00
2023-04-15T05:09:44.526Z,101292.84
2023-04-15T05:10:49.416Z,101288.13
2023-04-15T05:11:54.103Z,101293.22
2023-04-15T05:12:58.311Z,101287.16
2023-04-15T05:14:02.888Z,101293.22
2023-04-15T05:15:07.592Z,101288.00
2023-04-15T05:16:12.392Z,101292.56
2023-04-15T05:17:17.018Z,101295.44
2023-04-15T05:18:21.555Z,101292.72
2023-04-15T05:19:26.068Z,101296.44
2023-04-15T05:20:30.624Z,101299.16
2023-04-15T05:21:36.666Z,101297.97
2023-04-15T05:22:42.576Z,101297.13
2023-04-15T05:23:47.158Z,101297.50
2023-04-15T05:24:56.008Z,101296.81
2023-04-15T05:26:00.864Z,101301.56
2023-04-15T05:27:05.354Z,101299.69
2023-04-15T05:28:09.740Z,101300.91
2023-04-15T05:29:14.758Z,101289.44
2023-04-15T05:30:19.270Z,101298.38
2023-04-15T05:31:23.970Z,101300.91
2023-04-15T05:32:29.058Z,101291.97
2023-04-15T05:33:33.423Z,101297.53
2023-04-15T05:34:38.021Z,101291.97
2023-04-15T05:35:42.438Z,101294.34
2023-04-15T05:36:46.750Z,101297.22
2023-04-15T05:37:51.233Z,101292.66
2023-04-15T05:38:55.951Z,101298.91
2023-04-15T05:40:00.743Z,101295.38
2023-04-15T05:41:04.991Z,101298.91
2023-04-15T05:42:09.405Z,101300.94
2023-04-15T05:43:14.124Z,101305.72
2023-04-15T05:44:18.925Z,101297.94
2023-04-15T05:45:23.266Z,101299.63
2023-04-15T05:46:27.721Z,101307.75
2023-04-15T05:47:32.744Z,101304.03
2023-04-15T05:48:37.186Z,101309.44
2023-04-15T05:49:42.329Z,101316.53
2023-04-15T05:50:46.836Z,101313.84
2023-04-15T05:51:51.284Z,101313.00
2023-04-15T05:52:55.512Z,101313.00
2023-04-15T05:54:00.026Z,101313.84
2023-04-15T05:55:04.268Z,101313.84
2023-04-15T05:56:08.438Z,101316.53
2023-04-15T05:57:12.762Z,101316.53
2023-04-15T05:58:17.450Z,101317.56
2023-04-15T05:59:21.885Z,101312.13
2023-04-15T06:00:27.055Z,101317.56
2023-04-15T06:01:32.196Z,101320.25
2023-04-15T06:02:37.066Z,101317.56
2023-04-15T06:03:42.003Z,101321.09
2023-04-15T06:04:46.331Z,101319.59
2023-04-15T06:05:50.553Z,101319.59
2023-04-15T06:06:55.075Z,101316.03
2023-04-15T06:07:59.793Z,101322.28
2023-04-15T06:09:04.468Z,101321.28
2023-04-15T06:10:09.320Z,101326.31
2023-04-15T06:11:13.870Z,101324.66
2023-04-15T06:12:17.866Z,101325.66
2023-04-15T06:13:22.035Z,101327.84
2023-04-15T06:14:26.408Z,101329.75
2023-04-15T06:15:31.478Z,101329.56
2023-04-15T06:16:37.767Z,101331.06
2023-04-15T06:17:42.917Z,101332.56
2023-04-15T06:18:47.774Z,101333.59
2023-04-15T06:19:56.029Z,101338.81
2023-04-15T06:21:00.712Z,101331.38
2023-04-15T06:22:04.997Z,101337.25
2023-04-15T06:23:09.610Z,101341.78
2023-04-15T06:24:13.891Z,101340.78
2023-04-15T06:25:18.651Z,101338.91
2023-04-15T06:26:23.517Z,101346.84
2023-04-15T06:27:27.906Z,101349.22
2023-04-15T06:28:32.441Z,101344.28
2023-04-15T06:29:36.998Z,101341.69
2023-04-15T06:30:41.104Z,101340.81
2023-04-15T06:31:45.383Z,101344.97
2023-04-15T06:32:49.743Z,101349.44
2023-04-15T06:33:53.746Z,101340.09
2023-04-15T06:34:58.486Z,101348.81
2023-04-15T06:36:03.410Z,101349.09
2023-04-15T06:37:08.074Z,101345.88
2023-04-15T06:38:12.892Z,101355.94
2023-04-15T06:39:17.153Z,101349.50
2023-04-15T06:40:21.500Z,101351.88
2023-04-15T06:41:25.962Z,101354.75
2023-04-15T06:42:30.157Z,101351.66
2023-04-15T06:43:34.676Z,101359.44
2023-04-15T06:44:39.252Z,101361.13
2023-04-15T06:45:43.920Z,101361.75
2023-04-15T06:46:48.423Z,101364.47
2023-04-15T06:47:52.923Z,101362.44
2023-04-15T06:48:57.489Z,101365.75
2023-04-15T06:50:01.772Z,101366.19
2023-04-15T06:51:06.401Z,101378.13
2023-04-15T06:52:11.740Z,101375.97
2023-04-15T06:53:16.526Z,101373.66
2023-04-15T06:54:20.712Z,101374.50
2023-04-15T06:55:24.863Z,101375.34
2023-04-15T06:56:29.473Z,101382.63
2023-04-15T06:57:35.153Z,101380.75
2023-04-15T06:58:39.844Z,101373.81
2023-04-15T06:59:44.262Z,101383.72
2023-04-15T07:00:49.437Z,101371.59
2023-04-15T07:01:54.294Z,101379.97
2023-04-15T07:02:59.182Z,101382.03
2023-04-15T07:04:03.739Z,101376.56
2023-04-15T07:05:08.696Z,101377.38
2023-04-15T07:06:14.024Z,101374.88
2023-04-15T07:07:18.751Z,101377.25
2023-04-15T07:08:23.829Z,101371.75
2023-04-15T07:09:28.807Z,101381.84
2023-04-15T07:10:33.982Z,101382.72
2023-04-15T07:11:37.966Z,101382.34
2023-04-15T07:12:42.849Z,101375.00
2023-04-15T07:13:47.489Z,101375.69
2023-04-15T07:14:52.277Z,101381.00
2023-04-15T07:15:56.678Z,101383.00
2023-04-15T07:17:01.256Z,101381.47
2023-04-15T07:18:06.131Z,101378.50
2023-04-15T07:19:10.707Z,101386.88
2023-04-15T07:20:15.561Z,101385.16
2023-04-15T07:21:20.172Z,101383.50
2023-04-15T07:22:24.513Z,101388.06
2023-04-15T07:23:29.213Z,101393.88
2023-04-15T07:24:33.259Z,101387.19
2023-04-15T07:25:37.919Z,101399.38
2023-04-15T07:26:42.450Z,101389.19
2023-04-15T07:27:47.070Z,101397.31
2023-04-15T07:28:52.185Z,101393.50
2023-04-15T07:29:57.515Z,101396.69
2023-04-15T07:31:02.044Z,101399.38
2023-04-15T07:32:06.611Z,101399.34
2023-04-15T07:33:11.339Z,101391.53
2023-04-15T07:34:15.675Z,101406.41
2023-04-15T07:35:22.303Z,101394.00
2023-04-15T07:36:26.892Z,101394.81
2023-04-15T07:37:31.112Z,101392.38
2023-04-15T07:38:35.334Z,101399.34
2023-04-15T07:39:39.637Z,101387.97
2023-04-15T07:40:44.310Z,101402.06
2023-04-15T07:41:49.617Z,101396.34
2023-04-15T07:42:54.369Z,101395.09
2023-04-15T07:43:58.496Z,101399.50
2023-04-15T07:45:02.472Z,101393.28
2023-04-15T07:46:07.980Z,101397.06
2023-04-15T07:47:12.958Z,101401.88
2023-04-15T07:48:17.380Z,101402.69
2023-04-15T07:49:22.391Z,101395.44
2023-04-15T07:50:26.963Z,101399.81
2023-04-15T07:51:31.303Z,101406.00
2023-04-15T07:52:39.861Z,101408.00
2023-04-15T07:53:45.171Z,101406.63
2023-04-15T07:54:49.903Z,101407.81
2023-04-15T07:55:54.666Z,101407.00
2023-04-15T07:56:59.709Z,101407.47
2023-04-15T07:58:03.894Z,101405.56
2023-04-15T07:59:09.105Z,101408.06
2023-04-15T08:00:14.166Z,101403.34
2023-04-15T08:01:18.728Z,101413.28
2023-04-15T08:02:23.889Z,101412.81
2023-04-15T08:03:29.078Z,101411.53
2023-04-15T08:04:34.725Z,101422.03
2023-04-15T08:05:39.524Z,101415.59
2023-04-15T08:06:43.881Z,101426.75
2023-04-15T08:07:48.024Z,101412.38
2023-04-15T08:08:53.035Z,101419.41
2023-04-15T08:09:57.770Z,101416.97
2023-04-15T08:11:02.310Z,101414.78
2023-04-15T08:12:06.961Z,101410.47
2023-04-15T08:13:11.445Z,101409.91
2023-04-15T08:14:15.374Z,101412.38
2023-04-15T08:15:19.590Z,101413.47
2023-04-15T08:16:24.659Z,101414.50
2023-04-15T08:17:29.400Z,101410.41
2023-04-15T08:18:34.063Z,101413.59
2023-04-15T08:19:38.347Z,101415.03
2023-04-15T08:20:43.037Z,101418.97
2023-04-15T08:21:47.933Z,101411.97
2023-04-15T08:22:53.500Z,101416.88
2023-04-15T08:23:57.687Z,101424.59
2023-04-15T08:25:02.107Z,101420.59
2023-04-15T08:26:06.316Z,101428.00
2023-04-15T08:27:10.972Z,101420.28
2023-04-15T08:28:15.037Z,101425.53
2023-04-15T08:29:19.335Z,101425.59
2023-04-15T08:30:23.380Z,101427.91
2023-04-15T08:31:28.981Z,101425.16
2023-04-15T08:32:33.304Z,101425.28
2023-04-15T08:33:37.567Z,101417.16
2023-04-15T08:34:41.986Z,101423.97
2023-04-15T08:35:46.595Z,101424.34
2023-04-15T08:36:51.043Z,101427.09
2023-04-15T08:37:55.898Z,101423.97
2023-04-15T08:39:02.393Z,101420.84
2023-04-15T08:40:07.059Z,101417.72
2023-04-15T08:41:14.464Z,101428.44
2023-04-15T08:42:19.387Z,101424.84
2023-04-15T08:43:29.310Z,101426.97
2023-04-15T08:44:37.957Z,101419.84
2023-04-15T08:45:41.973Z,101425.72
2023-04-15T08:46:46.757Z,101425.72
2023-04-15T08:47:51.669Z,101428.19
2023-04-15T08:48:57.373Z,101432.88
2023-04-15T08:50:01.675Z,101428.59
2023-04-15T08:51:06.226Z,101433.81
2023-04-15T08:52:11.123Z,101431.19
2023-04-15T08:53:16.213Z,101437.28
2023-04-15T08:54:20.434Z,101419.94
2023-04-15T08:55:24.593Z,101425.22
2023-04-15T08:56:28.718Z,101428.56
2023-04-15T08:57:33.808Z,101430.13
2023-04-15T08:58:38.520Z,101428.72
2023-04-15T08:59:43.434Z,101430.94
2023-04-15T09:00:49.712Z,101429.78
2023-04-15T09:01:54.204Z,101427.00
2023-04-15T09:02:58.387Z,101431.88
2023-04-15T09:04:03.563Z,101435.13
2023-04-15T09:05:08.483Z,101433.31
2023-04-15T09:06:12.886Z,101436.25
2023-04-15T09:07:17.896Z,101436.34
2023-04-15T09:08:23.194Z,101430.97
2023-04-15T09:09:28.023Z,101434.03
2023-04-15T09:10:33.019Z,101439.47
2023-04-15T09:11:37.389Z,101426.53
2023-04-15T09:12:41.900Z,101434.78
2023-04-15T09:13:47.154Z,101426.69
2023-04-15T09:14:51.617Z,101436.69
2023-04-15T09:15:56.768Z,101434.28
2023-04-15T09:17:05.081Z,101428.81
2023-04-15T09:18:09.737Z,101432.75
2023-04-15T09:19:23.419Z,101427.56
2023-04-15T09:20:27.915Z,101440.84
2023-04-15T09:21:32.536Z,101439.47
2023-04-15T09:22:38.318Z,101435.44
2023-04-15T09:23:42.920Z,101439.69
2023-04-15T09:24:47.684Z,101440.94
2023-04-15T09:25:52.019Z,101441.44
2023-04-15T09:26:57.173Z,101445.47
2023-04-15T09:28:02.574Z,101444.72
2023-04-15T09:29:10.590Z,101446.22
2023-04-15T09:30:15.452Z,101439.03
2023-04-15T09:31:19.833Z,101438.00
2023-04-15T09:32:25.506Z,101436.72
2023-04-15T09:33:30.594Z,101444.50
2023-04-15T09:34:38.933Z,101439.69
2023-04-15T09:35:43.374Z,101440.28
2023-04-15T09:36:49.131Z,101436.94
2023-04-15T09:37:55.533Z,101445.78
2023-04-15T09:39:01.115Z,101440.91
2023-04-15T09:40:06.326Z,101446.06
2023-04-15T09:41:19.462Z,101440.38
2023-04-15T09:42:27.911Z,101442.53
2023-04-15T09:43:39.735Z,101438.63
2023-04-15T09:44:44.493Z,101432.84
2023-04-15T09:45:53.659Z,101441.06
2023-04-15T09:46:58.265Z,101441.53
2023-04-15T09:48:26.063Z,101443.25
2023-04-15T09:49:30.959Z,101434.19
2023-04-15T09:50:35.420Z,101434.28
2023-04-15T09:51:39.933Z,101446.19
2023-04-15T09:52:44.960Z,101439.84
2023-04-15T09:53:49.353Z,101443.81
2023-04-15T09:54:57.131Z,101444.16
2023-04-15T09:56:04.408Z,101443.00
2023-04-15T09:57:09.039Z,101445.88
2023-04-15T09:58:39.862Z,101442.53
2023-04-15T09:59:44.100Z,101438.19
2023-04-15T10:00:48.801Z,101438.09
2023-04-15T10:01:53.410Z,101445.97
2023-04-15T10:02:58.307Z,101446.09
2023-04-15T10:04:06.118Z,101436.06
2023-04-15T10:05:15.267Z,101436.91
2023-04-15T10:06:20.323Z,101441.81
2023-04-15T10:07:25.176Z,101441.88
2023-04-15T10:08:34.662Z,101447.19
2023-04-15T10:09:39.324Z,101445.16
2023-04-15T10:10:43.772Z,101445.66
2023-04-15T10:11:48.524Z,101445.25
2023-04-15T10:12:52.698Z,101447.72
2023-04-15T10:13:57.241Z,101440.22
2023-04-15T10:15:02.278Z,101438.81
2023-04-15T10:16:08.195Z,101445.75
2023-04-15T10:17:16.460Z,101449.50
2023-04-15T10:18:21.649Z,101441.34
2023-04-15T10:19:26.397Z,101438.72
2023-04-15T10:20:31.364Z,101443.47
2023-04-15T10:21:36.304Z,101443.22
2023-04-15T10:22:42.272Z,101443.50
2023-04-15T10:23:46.574Z,101438.53
2023-04-15T10:24:51.779Z,101439.47
2023-04-15T10:25:56.866Z,101429.84
2023-04-15T10:27:01.466Z,101431.34
2023-04-15T10:28:07.253Z,101430.00
2023-04-15T10:29:11.251Z,101426.78
2023-04-15T10:30:15.432Z,101428.19
2023-04-15T10:31:20.886Z,101421.63
2023-04-15T10:32:25.721Z,101424.03
2023-04-15T10:33:29.760Z,101423.56
2023-04-15T10:34:34.977Z,101423.69
2023-04-15T10:35:39.854Z,101421.09
2023-04-15T10:36:43.795Z,101408.59
2023-04-15T10:37:48.199Z,101408.31
2023-04-15T10:38:52.726Z,101411.50
2023-04-15T10:39:57.444Z,101405.72
2023-04-15T10:41:20.119Z,101401.09
2023-04-15T10:42:24.985Z,101414.47
2023-04-15T10:43:28.924Z,101414.22
2023-04-15T10:44:33.881Z,101412.84
2023-04-15T10:45:38.989Z,101400.75
2023-04-15T10:46:43.942Z,101406.50
2023-04-15T10:47:52.407Z,101411.19
2023-04-15T10:48:56.645Z,101411.78
2023-04-15T10:50:02.030Z,101419.72
2023-04-15T10:51:06.299Z,101412.53
2023-04-15T10:52:10.859Z,101415.09
2023-04-15T10:53:21.875Z,101409.94
2023-04-15T10:54:26.005Z,101399.41
2023-04-15T10:55:33.225Z,101414.41
2023-04-15T10:56:37.462Z,101411.41
2023-04-15T10:57:42.068Z,101403.34
2023-04-15T10:58:47.245Z,101402.09
2023-04-15T11:00:01.739Z,101413.13
2023-04-15T11:01:06.595Z,101409.50
2023-04-15T11:02:11.185Z,101405.72
2023-04-15T11:03:16.305Z,101408.75
2023-04-15T11:04:40.946Z,101406.03
2023-04-15T11:05:50.418Z,101397.66
2023-04-15T11:07:06.691Z,101397.78
2023-04-15T11:08:11.521Z,101394.31
2023-04-15T11:09:48.769Z,101400.28
2023-04-15T11:10:53.902Z,101395.16
2023-04-15T11:12:11.963Z,101386.75
2023-04-15T11:13:17.685Z,101384.28
2023-04-15T11:14:23.191Z,101391.41
2023-04-15T11:15:33.198Z,101392.16
2023-04-15T11:16:45.766Z,101387.28
2023-04-15T11:17:50.341Z,101390.66
2023-04-15T11:18:56.557Z,101379.16
2023-04-15T11:20:01.301Z,101377.91
2023-04-15T11:21:06.276Z,101380.19
2023-04-15T11:22:11.048Z,101377.94
2023-04-15T11:23:16.091Z,101381.09
2023-04-15T11:24:29.197Z,101381.63
2023-04-15T11:25:34.624Z,101376.06
2023-04-15T11:26:39.320Z,101378.34
2023-04-15T11:27:44.139Z,101380.63
2023-04-15T11:28:49.140Z,101381.56
2023-04-15T11:29:54.150Z,101378.72
2023-04-15T11:30:59.307Z,101378.22
2023-04-15T11:32:08.579Z,101368.81
2023-04-15T11:33:13.635Z,101366.13
2023-04-15T11:34:23.764Z,101373.03
2023-04-15T11:35:28.152Z,101376.31
2023-04-15T11:36:32.946Z,101365.81
2023-04-15T11:37:37.871Z,101369.44
2023-04-15T11:38:45.947Z,101374.72
2023-04-15T11:39:50.476Z,101365.38
2023-04-15T11:40:55.120Z,101363.91
2023-04-15T11:41:59.705Z,101357.63
2023-04-15T11:43:06.465Z,101359.25
2023-04-15T11:44:19.731Z,101363.09
2023-04-15T11:45:24.309Z,101357.22
2023-04-15T11:46:32.726Z,101352.53
2023-04-15T11:47:38.053Z,101354.97
2023-04-15T11:48:46.263Z,101352.47
2023-04-15T11:49:50.654Z,101340.94
2023-04-15T11:50:57.016Z,101348.44
2023-04-15T11:52:01.132Z,101351.09
2023-04-15T11:53:08.647Z,101351.19
2023-04-15T11:54:12.193Z,101347.06
2023-04-15T11:55:16.126Z,101348.97
2023-04-15T11:56:23.170Z,101347.41
2023-04-15T11:57:31.930Z,101349.84
2023-04-15T11:58:35.643Z,101346.34
2023-04-15T11:59:45.980Z,101347.06
2023-04-15T12:00:50.387Z,101350.69
2023-04-15T12:01:53.363Z,101355.84
2023-04-15T12:03:12.929Z,101351.09
2023-04-15T12:04:19.028Z,101348.97
2023-04-15T12:05:23.566Z,101352.06
2023-04-15T12:06:28.745Z,101348.56
2023-04-15T12:07:33.253Z,101354.13
2023-04-15T12:08:51.530Z,101350.66
2023-04-15T12:09:58.122Z,101353.38
2023-04-15T12:11:01.011Z,101346.06
2023-04-15T12:12:04.319Z,101345.22
2023-04-15T12:13:08.217Z,101346.56
2023-04-15T12:14:17.637Z,101334.13
2023-04-15T12:15:24.617Z,101345.69
2023-04-15T12:16:29.020Z,101338.63
2023-04-15T12:17:51.827Z,101341.78
2023-04-15T12:19:00.180Z,101340.53
2023-04-15T12:20:03.918Z,101331.81
2023-04-15T12:21:12.315Z,101337.88
2023-04-15T12:22:16.542Z,101337.00
2023-04-15T12:23:22.620Z,101337.59
2023-04-15T12:24:25.458Z,101337.63
2023-04-15T12:25:37.212Z,101330.69